Time;durP1;ratioP1;P1;durP2;ratioP2;P2;SDS_P1;SDS_P2;PMS_P1;PMS_P2;Temp;Humidity;BMP_temperature;BMP_pressure;BME280_temperature;BME280_humidity;BME280_pressure;Samples;Min_cycle;Max_cycle;Signal;HPM_P1;HPM_P2
2022/06/18 00:01:33;;;;;;;8.93;8.23;;;;;;;20.95;73.84;95338.59;5030461;28;20203;-65
2022/06/18 00:04:01;;;;;;;12.35;10.13;;;;;;;20.95;73.74;95333.44;5029770;28;21099;-64
2022/06/18 00:06:29;;;;;;;10.13;9.18;;;;;;;20.95;73.69;95333.44;5030728;28;20294;-64
2022/06/18 00:08:56;;;;;;;9.82;8.88;;;;;;;20.79;74.28;95338.00;5029657;28;20218;-64
2022/06/18 00:14:10;;;;;;;9.18;8.35;;;;;;;20.79;74.29;95332.81;5027381;28;20292;-64
2022/06/18 00:16:37;;;;;;;9.00;8.23;;;;;;;20.98;73.76;95328.03;5027834;28;20676;-65
2022/06/18 00:19:04;;;;;;;8.98;8.43;;;;;;;21.08;73.02;95328.22;5027975;28;20207;-65
2022/06/18 00:21:30;;;;;;;8.55;8.05;;;;;;;20.97;73.50;95331.56;5028198;28;20269;-64
2022/06/18 00:23:57;;;;;;;8.77;7.95;;;;;;;20.91;73.73;95332.00;5029352;28;20672;-65
2022/06/18 00:26:25;;;;;;;11.10;10.07;;;;;;;20.87;73.74;95324.56;5029495;28;20211;-65
2022/06/18 00:28:52;;;;;;;10.30;9.38;;;;;;;20.80;74.16;95326.72;5030430;28;20672;-65
2022/06/18 00:31:19;;;;;;;14.30;12.15;;;;;;;20.90;73.48;95309.66;5029781;28;20222;-65
2022/06/18 00:33:45;;;;;;;9.57;8.77;;;;;;;20.90;73.37;95320.00;5030310;28;21142;-65
2022/06/18 00:36:15;;;;;;;8.57;8.05;;;;;;;20.90;73.58;95314.84;5030123;28;20739;-64
2022/06/18 00:38:45;;;;;;;12.25;11.02;;;;;;;20.94;73.22;95311.09;5029439;28;20639;-64
2022/06/18 00:41:17;;;;;;;9.52;8.73;;;;;;;20.78;74.07;95315.72;5029138;28;20203;-65
2022/06/18 00:43:50;;;;;;;9.82;8.98;;;;;;;20.75;73.96;95310.75;5029781;28;20206;-64
2022/06/18 00:46:23;;;;;;;9.73;8.93;;;;;;;20.82;74.07;95311.13;5030000;28;20203;-64
2022/06/18 00:48:56;;;;;;;9.23;8.43;;;;;;;20.63;74.67;95314.16;5028273;28;20203;-65
2022/06/18 00:51:26;;;;;;;12.73;8.70;;;;;;;20.66;74.38;95316.53;5028806;28;20227;-65
2022/06/18 00:53:56;;;;;;;10.07;9.25;;;;;;;20.60;74.47;95311.78;5025462;28;20207;-64
2022/06/18 00:56:30;;;;;;;9.73;8.93;;;;;;;20.54;74.99;95317.41;5029583;28;20214;-64
2022/06/18 00:59:01;;;;;;;9.13;8.23;;;;;;;20.68;74.53;95319.84;5029782;28;20206;-65
2022/06/18 01:01:31;;;;;;;9.95;9.18;;;;;;;20.74;74.07;95314.25;5027547;28;20585;-64
2022/06/18 01:03:58;;;;;;;9.18;8.23;;;;;;;20.63;74.04;95314.16;5028097;28;20286;-65
2022/06/18 01:06:29;;;;;;;11.38;10.52;;;;;;;20.58;74.62;95308.50;5029751;28;20216;-65
2022/06/18 01:09:07;;;;;;;11.60;10.70;;;;;;;20.61;74.20;95318.59;5027945;28;21046;-64
2022/06/18 01:11:37;;;;;;;11.77;10.55;;;;;;;20.61;74.28;95308.28;5028835;28;20231;-65
2022/06/18 01:14:09;;;;;;;13.82;12.10;;;;;;;20.73;73.64;95314.38;5029819;28;20281;-63
2022/06/18 01:16:36;;;;;;;13.98;12.52;;;;;;;20.77;73.52;95313.22;5028930;28;20801;-64
2022/06/18 01:19:04;;;;;;;10.30;9.45;;;;;;;20.76;73.28;95312.41;5027219;28;20679;-65
2022/06/18 01:21:36;;;;;;;13.35;10.50;;;;;;;20.83;72.86;95318.78;5027015;28;20203;-64
2022/06/18 01:24:11;;;;;;;26.20;20.48;;;;;;;20.76;72.99;95319.31;5025528;28;20676;-64
2022/06/18 01:26:39;;;;;;;22.13;16.80;;;;;;;20.52;73.98;95314.91;5026775;28;20288;-63
2022/06/18 01:29:06;;;;;;;12.82;11.52;;;;;;;20.57;74.04;95305.09;5028809;28;20639;-64
2022/06/18 01:31:33;;;;;;;17.30;14.23;;;;;;;20.77;72.88;95308.88;5028624;28;20280;-64
2022/06/18 01:34:00;;;;;;;17.48;15.45;;;;;;;20.87;72.57;95315.03;5028158;28;20203;-64
2022/06/18 01:36:32;;;;;;;14.35;12.73;;;;;;;20.99;71.67;95309.03;5028886;28;20706;-64
2022/06/18 01:39:00;;;;;;;8.75;8.10;;;;;;;21.00;71.55;95310.69;5029015;28;20207;-64
2022/06/18 01:41:53;;;;;;;9.50;8.60;;;;;;;21.04;71.35;95311.25;5026520;28;20233;-64
2022/06/18 01:44:25;;;;;;;9.65;8.27;;;;;;;20.95;71.23;95311.94;5029413;28;20211;-64
2022/06/18 01:46:55;;;;;;;10.13;8.20;;;;;;;20.72;72.19;95316.13;5029655;28;20284;-64
2022/06/18 01:49:24;;;;;;;10.00;7.50;;;;;;;20.69;72.07;95316.34;5028277;28;20207;-64
2022/06/18 01:51:54;;;;;;;8.38;7.57;;;;;;;20.78;71.35;95310.53;5025829;28;20284;-63
2022/06/18 01:54:26;;;;;;;8.50;7.63;;;;;;;20.32;72.94;95318.81;5026823;28;21105;-64
2022/06/18 01:57:00;;;;;;;9.45;7.78;;;;;;;20.17;73.50;95317.28;5025813;28;21075;-64
2022/06/18 01:59:31;;;;;;;12.40;8.10;;;;;;;20.21;73.68;95320.47;5024352;28;20226;-64
2022/06/18 02:01:58;;;;;;;8.48;7.65;;;;;;;20.18;73.51;95321.50;5026120;28;20730;-65
2022/06/18 02:04:26;;;;;;;8.50;7.82;;;;;;;19.95;74.69;95309.31;5025467;28;20315;-64
2022/06/18 02:06:54;;;;;;;9.50;7.22;;;;;;;19.58;75.92;95310.88;5027285;28;20206;-65
2022/06/18 02:09:37;;;;;;;8.63;7.72;;;;;;;19.20;77.18;95311.56;5025370;28;20747;-65
2022/06/18 02:12:09;;;;;;;9.20;8.25;;;;;;;18.71;79.26;95302.69;5025791;28;20316;-64
2022/06/18 02:14:38;;;;;;;7.88;7.38;;;;;;;18.52;81.07;95305.53;5026440;28;20272;-64
2022/06/18 02:17:10;;;;;;;8.80;8.23;;;;;;;18.26;82.33;95302.78;5026212;28;20664;-64
2022/06/18 02:19:39;;;;;;;8.98;8.27;;;;;;;18.04;83.93;95302.41;5024237;28;21749;-64
2022/06/18 02:22:08;;;;;;;8.77;8.25;;;;;;;18.34;82.36;95300.56;5025575;28;20214;-65
2022/06/18 02:24:36;;;;;;;8.32;7.82;;;;;;;18.52;81.66;95308.13;5027415;28;20683;-64
2022/06/18 02:27:03;;;;;;;10.93;7.88;;;;;;;19.01;79.39;95309.34;5027854;28;21738;-64
2022/06/18 02:29:33;;;;;;;9.90;8.55;;;;;;;18.88;79.96;95310.19;5027129;28;20293;-64
2022/06/18 02:32:02;;;;;;;9.88;8.00;;;;;;;18.93;79.55;95308.16;5028651;28;20253;-64
2022/06/18 02:34:30;;;;;;;8.98;8.27;;;;;;;18.66;80.40;95310.69;5027482;28;20213;-64
2022/06/18 02:37:00;;;;;;;8.65;8.00;;;;;;;18.24;82.28;95312.34;5027868;28;20207;-65
2022/06/18 02:39:33;;;;;;;9.85;8.95;;;;;;;18.30;81.75;95308.59;5027682;28;20218;-65
2022/06/18 02:42:05;;;;;;;9.25;8.35;;;;;;;18.17;82.46;95308.47;5027779;28;20203;-64
2022/06/18 02:44:34;;;;;;;10.82;8.65;;;;;;;18.35;81.90;95304.78;5028389;28;20202;-64
2022/06/18 02:47:06;;;;;;;8.98;8.27;;;;;;;18.42;81.82;95301.84;5028415;28;20685;-66
2022/06/18 02:49:34;;;;;;;9.45;8.50;;;;;;;18.20;82.47;95292.84;5027615;28;20314;-65
2022/06/18 02:52:02;;;;;;;9.50;8.80;;;;;;;18.01;83.13;95297.44;5027763;28;20230;-65
2022/06/18 02:54:29;;;;;;;9.75;8.18;;;;;;;17.93;84.08;95295.31;5025948;28;20211;-63
2022/06/18 02:56:57;;;;;;;9.00;8.30;;;;;;;18.34;81.79;95299.72;5028123;28;20206;-63
2022/06/18 02:59:24;;;;;;;9.57;8.60;;;;;;;17.96;83.76;95302.84;5027426;28;20672;-63
2022/06/18 03:01:52;;;;;;;8.50;8.00;;;;;;;18.07;83.00;95304.78;5028014;28;20199;-63
2022/06/18 03:04:19;;;;;;;13.38;9.73;;;;;;;17.89;83.75;95303.28;5028063;28;20231;-63
2022/06/18 03:06:46;;;;;;;10.00;9.00;;;;;;;17.45;85.96;95314.34;5028528;28;20269;-63
2022/06/18 03:09:13;;;;;;;9.35;8.63;;;;;;;17.21;87.78;95316.56;5027541;28;20911;-64
2022/06/18 03:14:24;;;;;;;9.68;8.68;;;;;;;17.52;87.27;95309.69;5027947;28;20210;-63
2022/06/18 03:16:52;;;;;;;8.45;7.63;;;;;;;17.61;85.72;95301.44;5028172;28;20260;-64
2022/06/18 03:19:29;;;;;;;11.90;8.68;;;;;;;17.80;85.46;95309.00;5027988;28;20261;-63
2022/06/18 03:22:01;;;;;;;8.10;7.60;;;;;;;18.68;81.19;95298.56;5027748;28;20736;-63
2022/06/18 03:24:28;;;;;;;8.63;7.90;;;;;;;19.08;79.47;95306.34;5027463;28;20692;-63
2022/06/18 03:26:55;;;;;;;7.50;7.07;;;;;;;19.07;78.37;95315.00;5028032;28;20297;-64
2022/06/18 03:29:22;;;;;;;10.43;8.02;;;;;;;19.47;77.66;95313.31;5027818;28;20207;-64
2022/06/18 03:31:48;;;;;;;7.78;6.65;;;;;;;20.37;73.00;95323.69;5029609;28;20789;-64
2022/06/18 03:34:17;;;;;;;6.75;6.35;;;;;;;20.85;70.54;95316.91;5032050;28;20203;-63
2022/06/18 03:36:44;;;;;;;7.15;6.50;;;;;;;21.52;68.13;95306.16;5030951;28;20214;-63
2022/06/18 03:39:12;;;;;;;6.07;5.78;;;;;;;21.98;65.23;95308.75;5031717;28;20303;-64
2022/06/18 03:41:39;;;;;;;6.75;6.15;;;;;;;22.32;64.48;95323.44;5031857;28;20234;-64
2022/06/18 03:44:06;;;;;;;12.20;5.75;;;;;;;22.71;62.74;95318.75;5031518;28;20207;-64
2022/06/18 03:46:36;;;;;;;6.20;5.80;;;;;;;23.39;60.48;95318.53;5031374;28;20214;-65
2022/06/18 03:49:04;;;;;;;5.75;5.25;;;;;;;24.50;57.28;95320.72;5032004;28;20676;-64
2022/06/18 03:51:33;;;;;;;5.82;5.53;;;;;;;24.76;55.49;95311.50;5030997;28;20281;-64
2022/06/18 03:54:00;;;;;;;7.15;5.35;;;;;;;25.32;53.83;95308.41;5031165;28;20203;-64
2022/06/18 03:56:30;;;;;;;6.90;5.00;;;;;;;26.12;51.93;95317.75;5031216;28;20840;-64
2022/06/18 03:58:58;;;;;;;5.28;4.78;;;;;;;26.92;50.55;95318.06;5030809;28;20534;-64
2022/06/18 04:01:27;;;;;;;5.25;4.82;;;;;;;28.42;46.42;95318.22;5030819;28;20214;-64
2022/06/18 04:03:54;;;;;;;6.53;4.70;;;;;;;29.13;44.53;95326.75;5031150;28;20215;-64
2022/06/18 04:06:20;;;;;;;4.88;4.45;;;;;;;29.18;44.76;95316.66;5031644;28;20606;-64
2022/06/18 04:08:49;;;;;;;7.68;4.60;;;;;;;29.52;42.96;95321.81;5030718;28;20206;-65
2022/06/18 04:11:16;;;;;;;5.68;5.25;;;;;;;29.15;44.26;95317.78;5030742;28;20203;-65
2022/06/18 04:13:43;;;;;;;4.90;4.47;;;;;;;28.84;44.81;95317.47;5031022;28;20227;-64
2022/06/18 04:16:11;;;;;;;5.30;4.50;;;;;;;27.95;46.28;95319.50;5031489;28;20272;-64
2022/06/18 04:18:38;;;;;;;4.45;4.13;;;;;;;27.18;48.37;95310.41;5030546;28;20264;-64
2022/06/18 04:21:05;;;;;;;5.28;4.93;;;;;;;26.35;50.07;95322.53;5030471;28;20991;-64
2022/06/18 04:23:32;;;;;;;5.80;4.90;;;;;;;25.98;51.51;95319.00;5030758;28;20564;-64
2022/06/18 04:26:00;;;;;;;4.88;4.57;;;;;;;25.28;53.19;95327.84;5030638;28;20283;-64
2022/06/18 04:28:27;;;;;;;5.13;4.80;;;;;;;25.15;53.95;95325.50;5030629;28;20211;-64
2022/06/18 04:30:54;;;;;;;5.43;5.07;;;;;;;25.04;54.18;95323.81;5030658;28;20276;-64
2022/06/18 04:33:21;;;;;;;8.20;7.50;;;;;;;25.43;52.95;95316.09;5030047;28;20652;-63
2022/06/18 04:35:51;;;;;;;16.65;12.90;;;;;;;25.69;52.14;95308.59;5030596;28;20210;-64
2022/06/18 04:38:18;;;;;;;15.18;13.55;;;;;;;26.27;51.15;95309.34;5030700;28;20199;-64
2022/06/18 04:40:45;;;;;;;15.48;12.65;;;;;;;27.44;47.93;95315.72;5030329;28;20272;-63
2022/06/18 04:43:13;;;;;;;8.50;6.80;;;;;;;28.16;46.09;95321.75;5029872;28;20203;-64
2022/06/18 04:45:40;;;;;;;7.80;7.03;;;;;;;28.77;44.44;95321.66;5030611;28;20218;-65
2022/06/18 04:48:08;;;;;;;8.13;7.60;;;;;;;29.08;43.75;95319.38;5030060;28;21833;-64
2022/06/18 04:50:37;;;;;;;8.95;7.90;;;;;;;29.14;43.91;95320.56;5030322;28;20211;-64
2022/06/18 04:53:04;;;;;;;5.22;4.63;;;;;;;28.80;44.46;95316.13;5029566;28;20311;-64
2022/06/18 04:55:33;;;;;;;5.80;5.40;;;;;;;28.77;44.41;95311.19;5029524;28;20217;-65
2022/06/18 04:58:00;;;;;;;7.03;6.43;;;;;;;28.69;44.77;95321.66;5030403;28;20203;-64
2022/06/18 05:00:28;;;;;;;5.93;5.43;;;;;;;29.48;43.14;95320.50;5029407;28;20720;-64
2022/06/18 05:02:55;;;;;;;6.82;5.80;;;;;;;29.94;41.91;95321.72;5030321;28;20199;-65
2022/06/18 05:05:26;;;;;;;5.50;4.75;;;;;;;29.70;42.42;95320.69;5029762;28;20658;-64
2022/06/18 05:07:53;;;;;;;8.77;7.88;;;;;;;29.86;42.40;95319.09;5030161;28;20298;-63
2022/06/18 05:10:20;;;;;;;8.73;7.13;;;;;;;29.37;43.05;95324.22;5028851;28;20239;-63
2022/06/18 05:12:46;;;;;;;6.95;6.40;;;;;;;28.15;45.29;95330.59;5030487;28;20239;-65
2022/06/18 05:15:13;;;;;;;5.70;5.30;;;;;;;27.33;47.76;95324.59;5030384;28;20195;-63
2022/06/18 05:17:44;;;;;;;7.43;6.80;;;;;;;27.00;48.42;95326.00;5030149;28;20574;-64
2022/06/18 05:20:14;;;;;;;8.88;7.95;;;;;;;27.38;47.20;95332.81;5029318;28;20237;-64
2022/06/18 05:22:41;;;;;;;5.80;5.18;;;;;;;27.84;46.68;95333.59;5029499;28;20203;-64
2022/06/18 05:25:09;;;;;;;6.32;5.93;;;;;;;29.20;43.92;95335.63;5029152;28;20288;-65
2022/06/18 05:27:37;;;;;;;4.78;4.43;;;;;;;30.86;40.79;95336.22;5029951;28;20769;-63
2022/06/18 05:30:05;;;;;;;8.05;3.75;;;;;;;32.38;37.54;95330.25;5028955;28;20209;-64
2022/06/18 05:32:32;;;;;;;6.20;4.65;;;;;;;33.30;35.86;95333.38;5029281;28;20234;-64
2022/06/18 05:35:00;;;;;;;4.18;3.97;;;;;;;34.18;34.16;95331.47;5028955;28;21245;-63
2022/06/18 05:37:29;;;;;;;5.00;4.38;;;;;;;34.74;33.17;95332.31;5029961;28;20648;-65
2022/06/18 05:39:56;;;;;;;6.43;4.18;;;;;;;34.58;33.06;95333.44;5029067;28;20218;-63
2022/06/18 05:42:23;;;;;;;4.35;4.00;;;;;;;34.75;32.55;95336.59;5029019;28;20203;-64
2022/06/18 05:44:50;;;;;;;5.32;4.03;;;;;;;34.67;32.55;95334.09;5029570;28;21516;-64
2022/06/18 05:47:20;;;;;;;8.45;7.65;;;;;;;34.07;33.06;95340.72;5029656;28;21140;-64
2022/06/18 05:49:47;;;;;;;5.10;4.70;;;;;;;33.23;35.54;95342.16;5029018;28;21391;-64
2022/06/18 05:52:16;;;;;;;6.47;4.50;;;;;;;33.96;34.15;95336.75;5028305;28;20289;-63
2022/06/18 05:54:43;;;;;;;4.50;4.10;;;;;;;34.28;32.82;95340.69;5027923;28;20203;-63
2022/06/18 05:57:10;;;;;;;6.43;3.72;;;;;;;34.01;34.33;95336.19;5028817;28;20855;-67
2022/06/18 05:59:37;;;;;;;4.78;4.35;;;;;;;33.56;35.15;95338.16;5028524;28;20210;-64
2022/06/18 06:02:04;;;;;;;5.28;4.10;;;;;;;33.51;35.09;95335.25;5028717;28;20202;-63
2022/06/18 06:04:31;;;;;;;5.03;4.53;;;;;;;33.35;35.76;95344.19;5029056;28;20218;-62
2022/06/18 06:06:58;;;;;;;4.22;3.92;;;;;;;33.60;35.10;95349.13;5029374;28;20269;-63
2022/06/18 06:12:13;;;;;;;15.55;12.88;;;;;;;32.62;36.45;95344.97;5027519;28;21815;-63
2022/06/18 06:14:41;;;;;;;17.15;14.35;;;;;;;32.41;36.98;95339.59;5028427;28;20210;-63
2022/06/18 06:17:14;;;;;;;12.93;11.35;;;;;;;32.19;37.05;95335.97;5029232;28;20203;-64
2022/06/18 06:19:41;;;;;;;8.02;7.32;;;;;;;31.70;37.70;95341.59;5028289;28;20207;-63
2022/06/18 06:22:08;;;;;;;8.25;5.93;;;;;;;31.07;39.59;95337.28;5028593;28;20199;-63
2022/06/18 06:24:36;;;;;;;6.00;4.93;;;;;;;31.09;39.54;95334.50;5028747;28;20203;-64
2022/06/18 06:27:03;;;;;;;4.65;4.25;;;;;;;31.10;39.01;95336.13;5028184;28;20207;-64
2022/06/18 06:29:29;;;;;;;6.75;6.15;;;;;;;30.88;40.14;95321.13;5028423;28;20304;-62
2022/06/18 06:31:56;;;;;;;6.03;5.45;;;;;;;30.90;39.73;95321.78;5027824;28;20206;-64
2022/06/18 06:34:24;;;;;;;4.75;4.30;;;;;;;30.63;40.83;95328.25;5028660;28;20288;-63
2022/06/18 06:36:51;;;;;;;4.63;4.22;;;;;;;30.19;40.79;95335.66;5028437;28;20758;-64
2022/06/18 06:39:18;;;;;;;3.58;3.47;;;;;;;29.64;41.96;95341.50;5028763;28;20359;-63
2022/06/18 06:41:46;;;;;;;3.53;3.22;;;;;;;29.36;41.00;95344.34;5026979;28;20206;-64
2022/06/18 06:44:13;;;;;;;4.07;3.88;;;;;;;29.06;42.17;95347.50;5028314;28;20261;-63
2022/06/18 06:46:40;;;;;;;3.60;3.40;;;;;;;29.42;42.26;95342.91;5028051;28;20211;-64
2022/06/18 06:49:07;;;;;;;4.18;3.78;;;;;;;29.69;41.36;95350.50;5028204;28;20225;-63
2022/06/18 06:51:38;;;;;;;7.00;5.90;;;;;;;29.62;41.85;95349.50;5028330;28;20218;-63
2022/06/18 06:54:05;;;;;;;5.30;4.18;;;;;;;29.09;42.73;95336.72;5028161;28;20223;-64
2022/06/18 06:59:17;;;;;;;7.35;3.80;;;;;;;28.52;43.37;95349.47;5027589;28;20234;-64
2022/06/18 07:01:45;;;;;;;4.05;3.75;;;;;;;28.39;44.47;95349.91;5027667;28;20207;-63
2022/06/18 07:04:13;;;;;;;8.73;3.53;;;;;;;28.44;42.97;95337.19;5027567;28;20349;-64
2022/06/18 07:06:41;;;;;;;4.07;3.70;;;;;;;28.41;42.95;95336.69;5027720;28;20211;-64
2022/06/18 07:09:08;;;;;;;4.47;3.42;;;;;;;28.44;43.37;95331.97;5027589;28;20849;-64
2022/06/18 07:11:37;;;;;;;72.30;51.70;;;;;;;28.44;43.93;95334.56;5027692;28;20214;-62
2022/06/18 07:14:05;;;;;;;12.05;8.55;;;;;;;28.57;41.60;95341.19;5027325;28;20254;-63
2022/06/18 07:16:33;;;;;;;20.15;15.68;;;;;;;28.40;42.75;95335.84;5027275;28;20801;-63
2022/06/18 07:19:00;;;;;;;24.67;19.48;;;;;;;28.33;43.59;95328.78;5028049;28;20214;-64
2022/06/18 07:21:28;;;;;;;18.63;7.88;;;;;;;28.11;43.96;95330.88;5027666;28;20207;-64
2022/06/18 07:23:55;;;;;;;9.45;8.27;;;;;;;28.00;44.51;95336.31;5027543;28;20199;-63
2022/06/18 07:26:23;;;;;;;10.93;8.27;;;;;;;28.10;45.00;95333.63;5027857;28;20276;-64
2022/06/18 07:28:49;;;;;;;6.38;5.43;;;;;;;28.23;44.70;95334.09;5028075;28;20207;-64
2022/06/18 07:31:21;;;;;;;7.25;5.97;;;;;;;28.33;44.13;95334.81;5027573;28;20199;-64
2022/06/18 07:33:49;;;;;;;7.93;5.32;;;;;;;28.15;43.51;95336.63;5027045;28;20242;-64
2022/06/18 07:36:15;;;;;;;5.28;4.68;;;;;;;27.87;44.62;95332.47;5027670;28;20203;-64
2022/06/18 07:38:42;;;;;;;13.38;12.05;;;;;;;27.70;44.29;95332.34;5027803;28;20636;-64
2022/06/18 07:41:09;;;;;;;14.98;11.75;;;;;;;27.45;44.09;95330.44;5027617;28;20401;-63
2022/06/18 07:43:39;;;;;;;7.03;6.00;;;;;;;27.73;44.59;95333.81;5027353;28;20276;-63
2022/06/18 07:46:08;;;;;;;5.78;5.40;;;;;;;27.69;44.01;95333.31;5026912;28;20206;-64
2022/06/18 07:48:35;;;;;;;5.20;4.47;;;;;;;27.88;42.53;95336.72;5028046;28;20199;-63
2022/06/18 07:51:04;;;;;;;6.07;4.95;;;;;;;28.05;43.43;95330.66;5027282;28;20292;-63
2022/06/18 07:53:31;;;;;;;6.88;5.25;;;;;;;28.21;43.02;95335.25;5027838;28;20218;-64
2022/06/18 07:55:58;;;;;;;4.50;4.20;;;;;;;28.10;42.90;95328.41;5027208;28;20203;-66
2022/06/18 07:58:26;;;;;;;6.38;4.55;;;;;;;27.78;43.00;95327.16;5027545;28;20330;-63
2022/06/18 08:00:53;;;;;;;4.63;4.32;;;;;;;27.31;43.97;95338.75;5027260;28;20290;-63
2022/06/18 08:03:20;;;;;;;8.10;3.63;;;;;;;27.12;44.95;95326.63;5027721;28;20203;-63
2022/06/18 08:05:47;;;;;;;4.38;4.00;;;;;;;26.96;45.64;95324.69;5026716;28;20255;-63
2022/06/18 08:08:16;;;;;;;5.38;4.35;;;;;;;27.17;45.56;95334.03;5027785;28;21034;-63
2022/06/18 08:10:49;;;;;;;8.50;7.78;;;;;;;27.29;46.35;95327.63;5026882;28;20781;-62
2022/06/18 08:13:15;;;;;;;29.15;21.05;;;;;;;27.55;45.59;95331.16;5027751;28;20230;-64
2022/06/18 08:15:42;;;;;;;9.15;6.10;;;;;;;27.61;44.02;95324.56;5026285;28;20214;-64
2022/06/18 08:18:09;;;;;;;4.55;4.15;;;;;;;27.40;43.86;95324.81;5030198;28;20280;-63
2022/06/18 08:20:37;;;;;;;6.35;5.75;;;;;;;27.54;45.12;95332.13;5030504;28;20264;-64
2022/06/18 08:23:06;;;;;;;13.38;9.35;;;;;;;27.78;45.70;95329.78;5031249;28;20194;-64
2022/06/18 08:25:38;;;;;;;5.00;4.60;;;;;;;27.86;45.38;95336.06;5030239;28;20253;-64
2022/06/18 08:28:07;;;;;;;4.93;3.30;;;;;;;26.57;47.56;95325.75;5030996;28;20232;-64
2022/06/18 08:30:34;;;;;;;8.73;7.80;;;;;;;26.87;47.58;95320.28;5030379;28;20685;-64
2022/06/18 08:33:00;;;;;;;7.20;6.55;;;;;;;27.17;46.04;95326.22;5030513;28;20199;-63
2022/06/18 08:35:28;;;;;;;4.15;3.92;;;;;;;27.57;44.04;95328.41;5030277;28;20211;-64
2022/06/18 08:37:55;;;;;;;4.18;3.78;;;;;;;27.64;44.83;95324.28;5030651;28;20352;-64
2022/06/18 08:40:36;;;;;;;5.65;5.22;;;;;;;27.62;45.43;95323.59;5029669;28;20199;-64
2022/06/18 08:43:28;;;;;;;4.03;3.83;;;;;;;27.59;45.33;95316.88;5030003;28;20288;-63
2022/06/18 08:46:02;;;;;;;5.45;5.07;;;;;;;27.24;45.66;95315.03;5029637;28;20265;-64
2022/06/18 08:48:53;;;;;;;3.83;3.63;;;;;;;26.38;46.61;95316.22;5029559;28;20222;-64
2022/06/18 08:51:32;;;;;;;4.20;3.92;;;;;;;25.46;50.93;95308.03;5030441;28;20210;-64
2022/06/18 08:54:19;;;;;;;5.00;3.45;;;;;;;25.81;48.38;95311.88;5028751;28;20231;-64
2022/06/18 08:56:51;;;;;;;4.88;3.75;;;;;;;26.41;48.10;95311.53;5029695;28;20207;-64
2022/06/18 08:59:31;;;;;;;4.00;3.60;;;;;;;26.59;47.55;95297.75;5029763;28;20269;-66
2022/06/18 09:02:06;;;;;;;4.82;3.88;;;;;;;26.21;48.54;95309.91;5029631;28;21021;-64
2022/06/18 09:04:46;;;;;;;5.43;3.95;;;;;;;26.24;47.68;95309.63;5029964;28;20309;-64
2022/06/18 09:07:27;;;;;;;7.00;6.38;;;;;;;26.48;47.12;95303.16;5030163;28;20206;-64
2022/06/18 09:10:04;;;;;;;6.80;6.07;;;;;;;26.73;45.93;95297.28;5029855;28;20239;-64
2022/06/18 09:12:34;;;;;;;3.33;3.13;;;;;;;26.54;47.99;95302.56;5029513;28;20587;-63
2022/06/18 09:15:07;;;;;;;8.55;6.30;;;;;;;26.35;47.39;95300.84;5029149;28;20604;-64
2022/06/18 09:17:39;;;;;;;7.20;6.13;;;;;;;26.72;47.12;95293.06;5028907;28;20717;-63
2022/06/18 09:20:11;;;;;;;4.85;4.25;;;;;;;27.08;46.75;95297.41;5028975;28;20207;-64
2022/06/18 09:22:43;;;;;;;6.22;3.72;;;;;;;26.77;45.19;95296.03;5029218;28;20260;-64
2022/06/18 09:25:14;;;;;;;3.63;3.38;;;;;;;26.43;45.34;95295.75;5029454;28;20206;-63
2022/06/18 09:27:46;;;;;;;4.38;3.90;;;;;;;26.28;45.21;95291.91;5029007;28;20214;-64
2022/06/18 09:30:20;;;;;;;4.68;4.10;;;;;;;25.51;46.52;95298.00;5027638;28;20210;-62
2022/06/18 09:32:51;;;;;;;6.43;4.63;;;;;;;25.42;47.14;95299.66;5028415;28;20210;-64
2022/06/18 09:35:23;;;;;;;4.28;4.07;;;;;;;25.51;44.80;95298.00;5029799;28;20349;-63
2022/06/18 09:37:54;;;;;;;4.88;4.05;;;;;;;25.52;46.60;95299.66;5027881;28;20198;-63
2022/06/18 09:40:27;;;;;;;7.50;4.32;;;;;;;25.16;48.03;95300.31;5027042;28;20253;-63
2022/06/18 09:43:02;;;;;;;5.25;3.47;;;;;;;25.28;47.72;95301.81;5025570;28;20296;-64
2022/06/18 09:45:34;;;;;;;4.22;3.97;;;;;;;25.76;48.09;95300.09;5027311;28;20265;-63
2022/06/18 09:48:02;;;;;;;14.45;4.05;;;;;;;26.69;46.59;95290.72;5026521;28;20203;-64
2022/06/18 09:50:33;;;;;;;4.68;4.38;;;;;;;26.97;44.24;95296.81;5026932;28;20210;-64
2022/06/18 09:53:06;;;;;;;4.38;3.30;;;;;;;27.19;45.19;95300.78;5026478;28;20199;-64
2022/06/18 09:55:39;;;;;;;3.83;3.60;;;;;;;26.78;44.19;95295.88;5027536;28;20199;-63
2022/06/18 09:58:13;;;;;;;4.85;3.90;;;;;;;26.42;44.58;95302.75;5026800;28;20603;-64
2022/06/18 10:00:43;;;;;;;3.67;3.47;;;;;;;26.86;45.04;95296.94;5024528;28;20198;-64
2022/06/18 10:06:52;;;;;;;5.07;4.55;;;;;;;27.31;44.50;95299.59;5026866;28;20199;-64
2022/06/18 10:08:52;;;;;;;8.65;7.75;;;;;;;27.08;47.19;95293.97;5027650;28;20707;-64
2022/06/18 10:11:22;;;;;;;23.70;19.55;;;;;;;26.62;49.04;95287.88;5028124;28;20203;-64
2022/06/18 10:13:56;;;;;;;21.58;17.50;;;;;;;26.27;50.17;95298.09;5028177;28;20227;-64
2022/06/18 10:16:35;;;;;;;21.10;16.75;;;;;;;26.17;50.96;95292.94;5029314;28;20207;-64
2022/06/18 10:19:11;;;;;;;14.32;12.07;;;;;;;26.03;51.24;95290.75;5027774;28;20210;-64
2022/06/18 10:21:43;;;;;;;19.48;14.88;;;;;;;26.16;50.16;95286.06;5026023;28;20202;-63
2022/06/18 10:24:17;;;;;;;23.63;19.58;;;;;;;26.50;50.13;95283.78;5026920;28;20203;-64
2022/06/18 10:26:55;;;;;;;8.98;8.13;;;;;;;26.36;50.42;95287.69;5026808;28;20203;-63
2022/06/18 10:29:33;;;;;;;14.50;12.25;;;;;;;26.13;50.70;95291.56;5024948;28;20933;-64
2022/06/18 10:32:14;;;;;;;9.85;7.55;;;;;;;25.54;53.78;95305.53;5027275;28;20214;-64
2022/06/18 10:34:55;;;;;;;3.53;3.33;;;;;;;24.49;55.11;95325.09;5026576;28;20256;-69
2022/06/18 10:37:30;;;;;;;4.45;4.07;;;;;;;23.90;54.16;95330.03;5025960;28;20207;-67
2022/06/18 10:40:04;;;;;;;4.53;3.83;;;;;;;23.60;54.46;95315.19;5025425;28;20202;-67
2022/06/18 10:42:50;;;;;;;4.93;4.45;;;;;;;23.56;54.92;95317.19;5025758;28;20268;-67
2022/06/18 10:45:30;;;;;;;4.85;4.38;;;;;;;23.31;56.56;95322.66;5026508;28;20226;-66
2022/06/18 10:47:59;;;;;;;8.00;4.43;;;;;;;23.12;58.89;95322.47;5026152;28;21669;-68
2022/06/18 10:50:28;;;;;;;7.00;5.38;;;;;;;23.06;62.28;95309.06;5025173;28;20265;-67
2022/06/18 10:53:01;;;;;;;6.47;5.00;;;;;;;22.97;63.83;95314.97;5026186;28;20276;-68
2022/06/18 10:55:29;;;;;;;6.05;5.25;;;;;;;23.30;61.50;95315.84;5026756;28;20238;-67
2022/06/18 10:58:08;;;;;;;8.40;5.25;;;;;;;23.21;62.26;95314.00;5026977;28;20209;-67
2022/06/18 11:00:36;;;;;;;7.50;4.95;;;;;;;22.94;64.37;95324.75;5025698;28;20211;-69
2022/06/18 11:03:19;;;;;;;8.52;6.45;;;;;;;22.67;71.53;95346.66;5027226;28;20207;-68
2022/06/18 11:05:47;;;;;;;9.02;7.15;;;;;;;22.44;69.86;95352.75;5027115;28;20322;-68
2022/06/18 11:08:24;;;;;;;10.40;6.40;;;;;;;22.24;71.89;95340.50;5027866;28;20203;-68
2022/06/18 11:10:55;;;;;;;15.43;7.63;;;;;;;21.58;77.57;95329.78;5026103;28;20299;-68
2022/06/18 11:13:27;;;;;;;9.55;6.50;;;;;;;21.50;73.97;95324.38;5028221;28;20238;-67
2022/06/18 11:16:05;;;;;;;9.07;6.55;;;;;;;21.49;75.46;95316.72;5027927;28;20318;-68
2022/06/18 11:18:33;;;;;;;8.73;5.72;;;;;;;21.75;72.02;95320.00;5027739;28;20229;-68
2022/06/18 11:21:04;;;;;;;6.38;5.82;;;;;;;21.62;73.93;95323.47;5026589;28;20203;-68
2022/06/18 11:23:32;;;;;;;7.43;6.65;;;;;;;21.44;76.03;95329.16;5027312;28;20251;-69
2022/06/18 11:25:59;;;;;;;6.65;6.25;;;;;;;21.47;74.42;95326.34;5027812;28;20199;-68
2022/06/18 11:28:29;;;;;;;7.85;6.15;;;;;;;21.51;75.39;95327.78;5027226;28;20210;-68
2022/06/18 11:30:57;;;;;;;6.63;6.13;;;;;;;21.36;76.56;95330.50;5025844;28;20630;-68
2022/06/18 11:33:29;;;;;;;7.53;6.85;;;;;;;21.81;77.49;95332.44;5027930;28;20264;-69
2022/06/18 11:35:58;;;;;;;7.05;6.38;;;;;;;22.46;76.86;95327.56;5027646;28;20253;-68
2022/06/18 11:38:30;;;;;;;6.45;5.85;;;;;;;23.01;73.92;95331.13;5027190;28;20214;-69
2022/06/18 11:41:01;;;;;;;7.05;6.35;;;;;;;23.47;71.60;95333.47;5027018;28;20214;-68
2022/06/18 11:43:40;;;;;;;7.15;6.32;;;;;;;23.68;68.51;95334.38;5027627;28;20235;-69
2022/06/18 11:46:14;;;;;;;5.82;5.30;;;;;;;23.68;70.33;95342.16;5027337;28;20207;-69
2022/06/18 11:48:46;;;;;;;7.75;6.90;;;;;;;23.98;67.95;95346.63;5025461;28;20210;-68
2022/06/18 11:51:21;;;;;;;14.95;13.40;;;;;;;24.35;64.45;95341.84;5024303;28;20817;-70
2022/06/18 11:53:54;;;;;;;7.57;7.03;;;;;;;24.38;63.67;95344.19;5030083;28;20195;-69
2022/06/18 11:56:26;;;;;;;28.50;22.60;;;;;;;24.58;63.47;95346.88;5029391;28;21799;-71
2022/06/18 11:58:59;;;;;;;10.63;7.68;;;;;;;24.68;63.75;95337.34;5031212;28;20202;-71